HMS Portugal — V2NA6 — position and weather

sailwx.info

Track history (hours):
 
Tides and Currents Weather Stations Pressure Air Temp Water Temp Dewpoint Dewpoint Depression Visibility Wind Speed Wind Dir Waves Ship Positions

HMS Portugal

Last reported at 2017-Dec-16 05:00 UTC. Time now 2017-Dec-16 05:22 UTC.
Position N 25°48' W 079°32'.

Length 100 m; draft 6.2 m.

Type: Cargo ship. MMSI: 203640704.

Date/timePositionNaut miles runAvg speedWind from/ knotsBaromVisibWave heightAir tempDewpointWater temp
2017-Dec-16 05:00N 25°48' W 079°32'611.7
2017-Dec-16 04:30N 25°54' W 079°32'611.8
2017-Dec-16 04:00N 25°60' W 079°31'611.6
2017-Dec-16 03:29N 26°06' W 079°30'611.7
2017-Dec-16 03:00N 26°11' W 079°30'37 9.5
2017-Dec-15 23:05N 26°44' W 079°49'113.2
2017-Dec-15 23:00N 26°45' W 079°50'713.1
2017-Dec-15 22:30N 26°46' W 079°58'4 8.9
2017-Dec-15 22:00N 26°46' W 080°02'1 0.4
2017-Dec-15 20:39N 26°46' W 080°03'0 0.0
2017-Dec-15 20:30N 26°46' W 080°03'0 0.0
2017-Dec-15 20:00N 26°46' W 080°03'0 0.0
2017-Dec-15 19:30N 26°46' W 080°03'0 0.0
2017-Dec-15 19:00N 26°46' W 080°03'0 0.0
2017-Dec-15 18:30N 26°46' W 080°03'0 0.0
2017-Dec-15 18:00N 26°46' W 080°03'0 0.0
2017-Dec-15 17:30N 26°46' W 080°03'0 0.0
2017-Dec-15 17:00N 26°46' W 080°03'0 0.0
2017-Dec-15 16:30N 26°46' W 080°03'0 0.0
2017-Dec-15 16:00N 26°46' W 080°03'0 0.0
2017-Dec-15 15:30N 26°46' W 080°03'0 0.0
2017-Dec-15 15:00N 26°46' W 080°03'0 0.0
2017-Dec-15 14:30N 26°46' W 080°03'0 0.0
2017-Dec-15 13:57N 26°46' W 080°03'0 0.0
2017-Dec-15 13:22N 26°46' W 080°03'1 2.6
2017-Dec-15 12:57N 26°46' W 080°02'2 4.8
2017-Dec-15 12:30N 26°47' W 079°59'56 8.0
2017-Dec-15 05:27N 25°56' W 079°31'713.1
2017-Dec-15 04:54N 25°49' W 079°32'612.9
2017-Dec-15 04:24N 25°43' W 079°33'512.8
2017-Dec-15 04:01N 25°38' W 079°34'  
2017-Dec-08 12:13N 25°27' W 079°35'311.1
2017-Dec-08 12:00N 25°29' W 079°35'511.0
2017-Dec-08 11:30N 25°35' W 079°34'510.9
2017-Dec-08 11:00N 25°40' W 079°33'511.0
2017-Dec-08 10:30N 25°45' W 079°32'611.1
2017-Dec-08 10:00N 25°51' W 079°32'611.4
2017-Dec-08 09:30N 25°56' W 079°31'611.4
2017-Dec-08 09:00N 26°02' W 079°31'611.4
2017-Dec-08 08:30N 26°08' W 079°30'611.5
2017-Dec-08 08:00N 26°14' W 079°29'34 9.8
2017-Dec-08 04:36N 26°45' W 079°43'111.7
2017-Dec-08 04:30N 26°45' W 079°44'612.4
2017-Dec-08 04:00N 26°45' W 079°51'612.4
2017-Dec-08 03:30N 26°46' W 079°58'4 8.8
2017-Dec-08 03:00N 26°46' W 080°03'0 0.6
2017-Dec-08 02:30N 26°46' W 080°03'0 0.0
2017-Dec-08 02:00N 26°46' W 080°03'0 0.0
2017-Dec-08 01:30N 26°46' W 080°03'0 0.0
2017-Dec-08 01:00N 26°46' W 080°03'0 0.0
2017-Dec-08 00:30N 26°46' W 080°03'0 0.0
2017-Dec-08 00:00N 26°46' W 080°03'0 0.0
2017-Dec-07 23:30N 26°46' W 080°03'0 0.0
2017-Dec-07 23:00N 26°46' W 080°03'0 0.0
2017-Dec-07 22:30N 26°46' W 080°03'0 0.0
2017-Dec-07 22:00N 26°46' W 080°03'0 0.0
2017-Dec-07 21:30N 26°46' W 080°03'0 0.0
2017-Dec-07 21:00N 26°46' W 080°03'0 0.0
2017-Dec-07 20:30N 26°46' W 080°03'0 0.0
2017-Dec-07 20:00N 26°46' W 080°03'0 0.0
2017-Dec-07 19:30N 26°46' W 080°03'0 0.0
2017-Dec-07 19:00N 26°46' W 080°03'0 0.0
2017-Dec-07 18:30N 26°46' W 080°03'0 0.0
2017-Dec-07 18:00N 26°46' W 080°03'0 0.0
2017-Dec-07 17:30N 26°46' W 080°03'0 0.0
2017-Dec-07 17:00N 26°46' W 080°03'0 0.0
2017-Dec-07 16:30N 26°46' W 080°03'0 0.0
2017-Dec-07 16:00N 26°46' W 080°03'0 0.0
2017-Dec-07 15:30N 26°46' W 080°03'0 0.0
2017-Dec-07 15:00N 26°46' W 080°03'0 0.0
2017-Dec-07 14:30N 26°46' W 080°03'0 0.0
2017-Dec-07 14:00N 26°46' W 080°03'0 0.0
2017-Dec-07 13:30N 26°46' W 080°03'0 0.0
2017-Dec-07 13:00N 26°46' W 080°03'0 0.0
2017-Dec-07 12:30N 26°46' W 080°03'0 0.0
2017-Dec-07 12:00N 26°46' W 080°03'0 0.0
2017-Dec-07 11:30N 26°46' W 080°03'0 0.0
2017-Dec-07 11:00N 26°46' W 080°03'0 0.0
2017-Dec-07 10:30N 26°46' W 080°03'0 0.0
2017-Dec-07 10:00N 26°46' W 080°03'0 0.0
2017-Dec-07 09:30N 26°46' W 080°03'0 0.0
2017-Dec-07 09:00N 26°46' W 080°03'0 0.0
2017-Dec-07 08:30N 26°46' W 080°03'0 0.0
2017-Dec-07 08:00N 26°46' W 080°03'0 0.0
2017-Dec-07 07:30N 26°46' W 080°03'0 0.0
2017-Dec-07 07:00N 26°46' W 080°03'0 0.0
2017-Dec-07 06:30N 26°46' W 080°03'0 0.0
2017-Dec-07 06:00N 26°46' W 080°03'0 0.0
2017-Dec-07 05:30N 26°46' W 080°03'0 0.0
2017-Dec-07 05:00N 26°46' W 080°03'0 0.0
2017-Dec-07 04:30N 26°46' W 080°03'0 0.0
2017-Dec-07 04:00N 26°46' W 080°03'0 0.0
2017-Dec-07 03:30N 26°46' W 080°03'0 0.0
2017-Dec-07 03:00N 26°46' W 080°03'0 0.0
2017-Dec-07 02:30N 26°46' W 080°03'0 0.0
2017-Dec-07 02:00N 26°46' W 080°03'0 0.0
2017-Dec-07 01:30N 26°46' W 080°03'0 0.0
2017-Dec-07 01:00N 26°46' W 080°03'0 0.0
2017-Dec-07 00:30N 26°46' W 080°03'0 0.0
2017-Dec-07 00:00N 26°46' W 080°03'0 0.0
2017-Dec-06 23:30N 26°46' W 080°03'0 0.4
2017-Dec-06 23:00N 26°46' W 080°03'3 6.8
2017-Dec-06 22:30N 26°46' W 079°59'3 5.5
2017-Dec-06 22:00N 26°46' W 079°56'2 4.1
2017-Dec-06 21:30N 26°46' W 079°54'4 7.6
2017-Dec-06 21:00N 26°45' W 079°50'  
Track history (hours):
 
Tides and Currents Weather Stations Pressure Air Temp Water Temp Dewpoint Dewpoint Depression Visibility Wind Speed Wind Dir Waves Ship Positions

HMS Portugal

Last reported at 2017-Dec-16 05:00 UTC. Time now 2017-Dec-16 05:22 UTC.
Position N 25°48' W 079°32'.

Length 100 m; draft 6.2 m.

Type: Cargo ship. MMSI: 203640704.

Date/timePositionNaut miles runAvg speedWind from/ knotsBaromVisibWave heightAir tempDewpointWater temp
2017-Dec-16 05:00N 25°48' W 079°32'611.7
2017-Dec-16 04:30N 25°54' W 079°32'611.8
2017-Dec-16 04:00N 25°60' W 079°31'611.6
2017-Dec-16 03:29N 26°06' W 079°30'611.7
2017-Dec-16 03:00N 26°11' W 079°30'37 9.5
2017-Dec-15 23:05N 26°44' W 079°49'113.2
2017-Dec-15 23:00N 26°45' W 079°50'713.1
2017-Dec-15 22:30N 26°46' W 079°58'4 8.9
2017-Dec-15 22:00N 26°46' W 080°02'1 0.4
2017-Dec-15 20:39N 26°46' W 080°03'0 0.0
2017-Dec-15 20:30N 26°46' W 080°03'0 0.0
2017-Dec-15 20:00N 26°46' W 080°03'0 0.0
2017-Dec-15 19:30N 26°46' W 080°03'0 0.0
2017-Dec-15 19:00N 26°46' W 080°03'0 0.0
2017-Dec-15 18:30N 26°46' W 080°03'0 0.0
2017-Dec-15 18:00N 26°46' W 080°03'0 0.0
2017-Dec-15 17:30N 26°46' W 080°03'0 0.0
2017-Dec-15 17:00N 26°46' W 080°03'0 0.0
2017-Dec-15 16:30N 26°46' W 080°03'0 0.0
2017-Dec-15 16:00N 26°46' W 080°03'0 0.0
2017-Dec-15 15:30N 26°46' W 080°03'0 0.0
2017-Dec-15 15:00N 26°46' W 080°03'0 0.0
2017-Dec-15 14:30N 26°46' W 080°03'0 0.0
2017-Dec-15 13:57N 26°46' W 080°03'0 0.0
2017-Dec-15 13:22N 26°46' W 080°03'1 2.6
2017-Dec-15 12:57N 26°46' W 080°02'2 4.8
2017-Dec-15 12:30N 26°47' W 079°59'56 8.0
2017-Dec-15 05:27N 25°56' W 079°31'713.1
2017-Dec-15 04:54N 25°49' W 079°32'612.9
2017-Dec-15 04:24N 25°43' W 079°33'512.8
2017-Dec-15 04:01N 25°38' W 079°34'  
2017-Dec-08 12:13N 25°27' W 079°35'311.1
2017-Dec-08 12:00N 25°29' W 079°35'511.0
2017-Dec-08 11:30N 25°35' W 079°34'510.9
2017-Dec-08 11:00N 25°40' W 079°33'511.0
2017-Dec-08 10:30N 25°45' W 079°32'611.1
2017-Dec-08 10:00N 25°51' W 079°32'611.4
2017-Dec-08 09:30N 25°56' W 079°31'611.4
2017-Dec-08 09:00N 26°02' W 079°31'611.4
2017-Dec-08 08:30N 26°08' W 079°30'611.5
2017-Dec-08 08:00N 26°14' W 079°29'34 9.8
2017-Dec-08 04:36N 26°45' W 079°43'111.7
2017-Dec-08 04:30N 26°45' W 079°44'612.4
2017-Dec-08 04:00N 26°45' W 079°51'612.4
2017-Dec-08 03:30N 26°46' W 079°58'4 8.8
2017-Dec-08 03:00N 26°46' W 080°03'0 0.6
2017-Dec-08 02:30N 26°46' W 080°03'0 0.0
2017-Dec-08 02:00N 26°46' W 080°03'0 0.0
2017-Dec-08 01:30N 26°46' W 080°03'0 0.0
2017-Dec-08 01:00N 26°46' W 080°03'0 0.0
2017-Dec-08 00:30N 26°46' W 080°03'0 0.0
2017-Dec-08 00:00N 26°46' W 080°03'0 0.0
2017-Dec-07 23:30N 26°46' W 080°03'0 0.0
2017-Dec-07 23:00N 26°46' W 080°03'0 0.0
2017-Dec-07 22:30N 26°46' W 080°03'0 0.0
2017-Dec-07 22:00N 26°46' W 080°03'0 0.0
2017-Dec-07 21:30N 26°46' W 080°03'0 0.0
2017-Dec-07 21:00N 26°46' W 080°03'0 0.0
2017-Dec-07 20:30N 26°46' W 080°03'0 0.0
2017-Dec-07 20:00N 26°46' W 080°03'0 0.0
2017-Dec-07 19:30N 26°46' W 080°03'0 0.0
2017-Dec-07 19:00N 26°46' W 080°03'0 0.0
2017-Dec-07 18:30N 26°46' W 080°03'0 0.0
2017-Dec-07 18:00N 26°46' W 080°03'0 0.0
2017-Dec-07 17:30N 26°46' W 080°03'0 0.0
2017-Dec-07 17:00N 26°46' W 080°03'0 0.0
2017-Dec-07 16:30N 26°46' W 080°03'0 0.0
2017-Dec-07 16:00N 26°46' W 080°03'0 0.0
2017-Dec-07 15:30N 26°46' W 080°03'0 0.0
2017-Dec-07 15:00N 26°46' W 080°03'0 0.0
2017-Dec-07 14:30N 26°46' W 080°03'0 0.0
2017-Dec-07 14:00N 26°46' W 080°03'0 0.0
2017-Dec-07 13:30N 26°46' W 080°03'0 0.0
2017-Dec-07 13:00N 26°46' W 080°03'0 0.0
2017-Dec-07 12:30N 26°46' W 080°03'0 0.0
2017-Dec-07 12:00N 26°46' W 080°03'0 0.0
2017-Dec-07 11:30N 26°46' W 080°03'0 0.0
2017-Dec-07 11:00N 26°46' W 080°03'0 0.0
2017-Dec-07 10:30N 26°46' W 080°03'0 0.0
2017-Dec-07 10:00N 26°46' W 080°03'0 0.0
2017-Dec-07 09:30N 26°46' W 080°03'0 0.0
2017-Dec-07 09:00N 26°46' W 080°03'0 0.0
2017-Dec-07 08:30N 26°46' W 080°03'0 0.0
2017-Dec-07 08:00N 26°46' W 080°03'0 0.0
2017-Dec-07 07:30N 26°46' W 080°03'0 0.0
2017-Dec-07 07:00N 26°46' W 080°03'0 0.0
2017-Dec-07 06:30N 26°46' W 080°03'0 0.0
2017-Dec-07 06:00N 26°46' W 080°03'0 0.0
2017-Dec-07 05:30N 26°46' W 080°03'0 0.0
2017-Dec-07 05:00N 26°46' W 080°03'0 0.0
2017-Dec-07 04:30N 26°46' W 080°03'0 0.0
2017-Dec-07 04:00N 26°46' W 080°03'0 0.0
2017-Dec-07 03:30N 26°46' W 080°03'0 0.0
2017-Dec-07 03:00N 26°46' W 080°03'0 0.0
2017-Dec-07 02:30N 26°46' W 080°03'0 0.0
2017-Dec-07 02:00N 26°46' W 080°03'0 0.0
2017-Dec-07 01:30N 26°46' W 080°03'0 0.0
2017-Dec-07 01:00N 26°46' W 080°03'0 0.0
2017-Dec-07 00:30N 26°46' W 080°03'0 0.0
2017-Dec-07 00:00N 26°46' W 080°03'0 0.0
2017-Dec-06 23:30N 26°46' W 080°03'0 0.4
2017-Dec-06 23:00N 26°46' W 080°03'3 6.8
2017-Dec-06 22:30N 26°46' W 079°59'3 5.5
2017-Dec-06 22:00N 26°46' W 079°56'2 4.1
2017-Dec-06 21:30N 26°46' W 079°54'4 7.6
2017-Dec-06 21:00N 26°45' W 079°50'  

Dump ship's entire track history